createdAt,value
2022-12-22T00:00:21.138Z,3.43
2022-12-22T00:03:06.620Z,3.07
2022-12-22T00:05:52.415Z,3.20
2022-12-22T00:08:37.913Z,3.00
2022-12-22T00:11:29.148Z,3.10
2022-12-22T00:14:15.282Z,3.07
2022-12-22T00:17:02.605Z,2.97
2022-12-22T00:19:48.774Z,3.20
2022-12-22T00:22:42.408Z,2.77
2022-12-22T00:25:32.375Z,2.50
2022-12-22T00:28:20.862Z,3.23
2022-12-22T00:31:07.081Z,2.60
2022-12-22T00:33:53.302Z,2.53
2022-12-22T00:36:47.416Z,2.83
2022-12-22T00:39:35.313Z,2.83
2022-12-22T00:42:22.367Z,2.43
2022-12-22T00:45:08.222Z,2.67
2022-12-22T00:48:00.676Z,3.23
2022-12-22T00:50:51.510Z,3.23
2022-12-22T00:53:40.534Z,3.27
2022-12-22T00:56:30.081Z,3.20
2022-12-22T00:59:18.483Z,3.00
2022-12-22T01:02:04.295Z,3.20
2022-12-22T01:04:50.318Z,3.80
2022-12-22T01:07:39.320Z,6.73
2022-12-22T01:10:30.287Z,9.30
2022-12-22T01:13:15.780Z,8.77
2022-12-22T01:16:01.215Z,4.93
2022-12-22T01:18:47.956Z,3.47
2022-12-22T01:21:34.604Z,3.80
2022-12-22T01:24:35.630Z,3.17
2022-12-22T01:27:24.295Z,4.07
2022-12-22T01:30:09.766Z,4.13
2022-12-22T01:32:59.988Z,3.73
2022-12-22T01:35:49.216Z,3.60
2022-12-22T01:38:35.479Z,3.77
2022-12-22T01:41:24.016Z,3.73
2022-12-22T01:44:09.603Z,4.27
2022-12-22T01:47:08.757Z,3.97
2022-12-22T01:50:00.229Z,3.90
2022-12-22T01:52:55.111Z,4.00
2022-12-22T01:55:44.327Z,3.90
2022-12-22T01:58:49.749Z,4.30
2022-12-22T02:05:01.813Z,5.53
2022-12-22T02:08:19.793Z,5.20
2022-12-22T02:11:34.766Z,5.70
2022-12-22T02:14:29.479Z,6.90
2022-12-22T02:17:21.543Z,6.10
2022-12-22T02:20:37.792Z,6.63
2022-12-22T02:23:40.017Z,6.40
2022-12-22T02:26:49.615Z,7.20
2022-12-22T02:29:38.678Z,6.57
2022-12-22T02:32:26.057Z,5.80
2022-12-22T02:35:11.424Z,6.47
2022-12-22T02:38:05.803Z,6.17
2022-12-22T02:41:18.616Z,6.40
2022-12-22T02:44:35.313Z,6.57
2022-12-22T02:47:50.947Z,6.03
2022-12-22T02:50:48.434Z,7.77
2022-12-22T02:53:37.259Z,6.60
2022-12-22T02:56:26.267Z,7.50
2022-12-22T02:59:12.408Z,6.93
2022-12-22T03:02:00.163Z,6.90
2022-12-22T03:04:45.588Z,8.47
2022-12-22T03:07:31.391Z,6.90
2022-12-22T03:10:16.771Z,7.07
2022-12-22T03:13:02.129Z,7.63
2022-12-22T03:15:47.508Z,7.30
2022-12-22T03:18:32.945Z,7.40
2022-12-22T03:21:18.244Z,7.00
2022-12-22T03:24:03.711Z,7.53
2022-12-22T03:26:30.837Z,7.53
2022-12-22T03:28:57.801Z,7.33
2022-12-22T03:31:24.837Z,7.67
2022-12-22T03:33:51.777Z,8.20
2022-12-22T03:36:18.728Z,7.53
2022-12-22T03:38:45.732Z,7.77
2022-12-22T03:41:32.616Z,7.77
2022-12-22T03:44:18.047Z,7.43
2022-12-22T03:46:45.000Z,7.57
2022-12-22T03:49:12.211Z,7.70
2022-12-22T03:51:44.914Z,7.13
2022-12-22T03:54:17.489Z,8.13
2022-12-22T03:56:44.832Z,7.57
2022-12-22T03:59:12.272Z,7.80
2022-12-22T04:01:45.174Z,8.30
2022-12-22T04:04:13.635Z,8.20
2022-12-22T04:06:40.977Z,8.43
2022-12-22T04:09:08.041Z,8.67
2022-12-22T04:11:53.807Z,7.57
2022-12-22T04:14:21.875Z,7.67
2022-12-22T04:16:49.583Z,7.13
2022-12-22T04:19:17.096Z,7.13
2022-12-22T04:21:44.170Z,8.07
2022-12-22T04:24:14.392Z,8.30
2022-12-22T04:26:41.411Z,9.57
2022-12-22T04:29:08.337Z,9.17
2022-12-22T04:31:35.428Z,8.20
2022-12-22T04:34:02.525Z,7.90
2022-12-22T04:36:29.439Z,8.20
2022-12-22T04:38:56.338Z,7.83
2022-12-22T04:41:23.301Z,7.37
2022-12-22T04:43:50.191Z,8.47
2022-12-22T04:46:17.263Z,8.60
2022-12-22T04:48:44.209Z,7.23
2022-12-22T04:51:11.187Z,7.33
2022-12-22T04:53:38.132Z,7.87
2022-12-22T04:56:07.757Z,8.80
2022-12-22T04:58:34.951Z,7.90
2022-12-22T05:01:13.369Z,8.50
2022-12-22T05:03:40.459Z,8.83
2022-12-22T05:06:08.034Z,9.47
2022-12-22T05:08:35.245Z,9.03
2022-12-22T05:11:02.971Z,8.47
2022-12-22T05:13:31.623Z,7.73
2022-12-22T05:16:10.608Z,8.33
2022-12-22T05:18:40.219Z,8.17
2022-12-22T05:21:19.161Z,7.60
2022-12-22T05:23:46.863Z,8.07
2022-12-22T05:26:14.990Z,7.13
2022-12-22T05:28:43.341Z,10.90
2022-12-22T05:31:14.765Z,7.73
2022-12-22T05:33:41.735Z,8.23
2022-12-22T05:36:08.865Z,8.03
2022-12-22T05:38:35.784Z,7.70
2022-12-22T05:41:04.547Z,7.30
2022-12-22T05:43:32.986Z,8.53
2022-12-22T05:46:08.088Z,10.30
2022-12-22T05:48:38.911Z,9.00
2022-12-22T05:51:08.959Z,9.73
2022-12-22T05:53:36.254Z,10.90
2022-12-22T05:56:03.222Z,10.63
2022-12-22T05:58:30.232Z,9.70
2022-12-22T06:00:58.786Z,9.50
2022-12-22T06:03:27.115Z,10.30
2022-12-22T06:05:54.817Z,10.90
2022-12-22T06:08:22.208Z,10.50
2022-12-22T06:10:49.330Z,11.30
2022-12-22T06:13:16.478Z,10.53
2022-12-22T06:15:43.418Z,10.80
2022-12-22T06:18:10.377Z,12.73
2022-12-22T06:20:37.254Z,14.57
2022-12-22T06:23:04.187Z,12.77
2022-12-22T06:25:31.179Z,14.40
2022-12-22T06:27:58.037Z,13.77
2022-12-22T06:30:32.636Z,15.90
2022-12-22T06:33:01.168Z,14.63
2022-12-22T06:35:28.617Z,13.60
2022-12-22T06:37:55.725Z,15.20
2022-12-22T06:40:22.860Z,22.43
2022-12-22T06:43:09.277Z,16.30
2022-12-22T06:45:41.998Z,16.57
2022-12-22T06:48:10.600Z,14.30
2022-12-22T06:50:37.902Z,11.93
2022-12-22T06:53:05.733Z,12.67
2022-12-22T06:55:32.701Z,12.10
2022-12-22T06:57:59.854Z,12.13
2022-12-22T07:00:26.803Z,14.73
2022-12-22T07:02:53.886Z,15.53
2022-12-22T07:05:21.345Z,11.80
2022-12-22T07:07:48.272Z,10.23
2022-12-22T07:10:15.624Z,9.37
2022-12-22T07:12:42.598Z,9.93
2022-12-22T07:15:10.342Z,10.27
2022-12-22T07:17:37.424Z,10.63
2022-12-22T07:20:04.772Z,16.90
2022-12-22T07:22:31.646Z,15.53
2022-12-22T07:24:59.158Z,11.57
2022-12-22T07:27:26.078Z,11.27
2022-12-22T07:30:01.306Z,10.37
2022-12-22T07:32:28.227Z,12.50
2022-12-22T07:34:58.758Z,12.07
2022-12-22T07:37:28.356Z,11.50
2022-12-22T07:39:55.222Z,12.60
2022-12-22T07:42:40.636Z,12.27
2022-12-22T07:45:08.046Z,10.73
2022-12-22T07:47:35.666Z,10.27
2022-12-22T07:50:22.007Z,11.27
2022-12-22T07:52:49.518Z,10.80
2022-12-22T07:55:16.445Z,10.13
2022-12-22T07:57:43.376Z,11.50
2022-12-22T08:00:11.249Z,11.67
2022-12-22T08:02:43.827Z,10.67
2022-12-22T08:05:11.021Z,11.13
2022-12-22T08:07:38.019Z,12.53
2022-12-22T08:10:05.516Z,11.63
2022-12-22T08:12:32.734Z,11.20
2022-12-22T08:14:59.898Z,12.17
2022-12-22T08:17:27.779Z,11.43
2022-12-22T08:19:55.774Z,10.73
2022-12-22T08:22:26.537Z,11.00
2022-12-22T08:24:54.154Z,10.63
2022-12-22T08:27:26.606Z,11.57
2022-12-22T08:30:00.787Z,12.13
2022-12-22T08:32:27.993Z,11.43
2022-12-22T08:34:54.906Z,12.37
2022-12-22T08:37:27.443Z,12.17
2022-12-22T08:39:58.451Z,11.80
2022-12-22T08:42:26.472Z,13.20
2022-12-22T08:44:53.596Z,13.83
2022-12-22T08:47:21.731Z,15.57
2022-12-22T08:49:49.716Z,16.67
2022-12-22T08:52:18.739Z,17.50
2022-12-22T08:54:46.747Z,18.47
2022-12-22T08:57:13.893Z,20.03
2022-12-22T08:59:40.889Z,19.80
2022-12-22T09:02:07.925Z,20.37
2022-12-22T09:04:35.537Z,21.17
2022-12-22T09:07:02.730Z,22.07
2022-12-22T09:09:34.262Z,20.43
2022-12-22T09:12:02.861Z,21.17
2022-12-22T09:14:30.649Z,21.70
2022-12-22T09:16:57.628Z,20.47
2022-12-22T09:19:24.596Z,21.23
2022-12-22T09:21:51.542Z,20.23
2022-12-22T09:24:18.597Z,20.03
2022-12-22T09:26:45.679Z,19.17
2022-12-22T09:29:15.740Z,18.80
2022-12-22T09:31:43.870Z,18.93
2022-12-22T09:34:17.049Z,18.27
2022-12-22T09:36:45.391Z,19.60
2022-12-22T09:39:12.571Z,17.30
2022-12-22T09:41:52.497Z,17.00
2022-12-22T09:44:36.921Z,18.87
2022-12-22T09:47:25.638Z,19.13
2022-12-22T09:49:55.310Z,18.60
2022-12-22T09:52:44.588Z,20.53
2022-12-22T09:55:26.069Z,18.73
2022-12-22T09:57:56.809Z,18.50
2022-12-22T10:00:27.015Z,17.63
2022-12-22T10:03:12.716Z,17.20
2022-12-22T10:05:50.193Z,17.23
2022-12-22T10:08:28.031Z,18.10
2022-12-22T10:10:56.753Z,17.83
2022-12-22T10:13:23.704Z,17.80
2022-12-22T10:15:52.108Z,17.23
2022-12-22T10:18:29.715Z,17.33
2022-12-22T10:21:12.936Z,16.40
2022-12-22T10:23:46.128Z,15.67
2022-12-22T10:26:30.678Z,15.33
2022-12-22T10:29:04.926Z,17.30
2022-12-22T10:31:34.127Z,17.27
2022-12-22T10:34:16.824Z,19.10
2022-12-22T10:36:56.375Z,16.90
2022-12-22T10:39:34.427Z,26.03
2022-12-22T10:42:16.167Z,15.93
2022-12-22T10:44:49.048Z,14.37
2022-12-22T10:47:24.461Z,13.37
2022-12-22T10:52:29.454Z,12.73
2022-12-22T10:55:16.562Z,16.23
2022-12-22T10:57:43.561Z,15.43
2022-12-22T11:00:31.727Z,16.03
2022-12-22T11:03:01.436Z,17.00
2022-12-22T11:05:30.020Z,16.50
2022-12-22T11:08:00.930Z,16.67
2022-12-22T11:10:34.219Z,22.17
2022-12-22T11:13:19.714Z,21.47
2022-12-22T11:16:14.974Z,15.27
2022-12-22T11:18:45.696Z,15.47
2022-12-22T11:21:46.689Z,16.00
2022-12-22T11:24:32.545Z,16.40
2022-12-22T11:27:23.169Z,16.30
2022-12-22T11:29:55.954Z,17.00
2022-12-22T11:32:51.680Z,16.77
2022-12-22T11:35:33.676Z,16.77
2022-12-22T11:38:28.775Z,22.30
2022-12-22T11:41:40.066Z,25.77
2022-12-22T11:44:48.558Z,15.10
2022-12-22T11:47:18.514Z,15.67
2022-12-22T11:49:45.462Z,15.93
2022-12-22T11:52:44.695Z,16.03
2022-12-22T11:55:13.929Z,16.87
2022-12-22T11:57:40.947Z,17.23
2022-12-22T12:00:14.276Z,14.50
2022-12-22T12:02:41.251Z,12.15
2022-12-22T12:05:34.254Z,12.07
2022-12-22T12:08:18.151Z,12.57
2022-12-22T12:10:57.899Z,12.33
2022-12-22T12:13:37.852Z,12.70
2022-12-22T12:16:13.305Z,13.15
2022-12-22T12:18:51.460Z,12.27
2022-12-22T12:21:30.107Z,12.85
2022-12-22T12:23:59.866Z,12.40
2022-12-22T12:26:32.751Z,12.55
2022-12-22T12:29:16.056Z,12.18
2022-12-22T12:32:06.629Z,11.30
2022-12-22T12:34:37.632Z,11.07
2022-12-22T12:37:18.134Z,10.65
2022-12-22T12:39:59.275Z,10.95
2022-12-22T12:42:37.011Z,9.63
2022-12-22T12:45:05.427Z,9.27
2022-12-22T12:47:34.400Z,8.73
2022-12-22T12:50:37.897Z,9.02
2022-12-22T12:53:08.065Z,9.57
2022-12-22T12:55:52.161Z,10.10
2022-12-22T12:58:40.293Z,10.35
2022-12-22T13:01:12.985Z,9.67
2022-12-22T13:06:49.824Z,9.63
2022-12-22T13:12:34.644Z,9.13
2022-12-22T13:15:01.878Z,10.27
2022-12-22T13:17:39.116Z,11.03
2022-12-22T13:20:13.944Z,10.20
2022-12-22T13:22:43.564Z,11.37
2022-12-22T13:25:18.119Z,11.60
2022-12-22T13:27:45.180Z,11.87
2022-12-22T13:30:18.020Z,12.27
2022-12-22T13:32:48.150Z,12.50
2022-12-22T13:35:31.938Z,13.27
2022-12-22T13:37:59.671Z,12.90
2022-12-22T13:40:31.056Z,13.80
2022-12-22T13:43:05.515Z,13.87
2022-12-22T13:45:38.054Z,13.73
2022-12-22T13:48:25.630Z,14.60
2022-12-22T13:50:55.708Z,13.90
2022-12-22T13:56:46.547Z,12.20
2022-12-22T13:59:28.721Z,12.20
2022-12-22T14:02:20.169Z,11.63
2022-12-22T14:05:07.360Z,11.67
2022-12-22T14:07:34.300Z,12.17
2022-12-22T14:10:01.226Z,12.30
2022-12-22T14:12:31.429Z,12.67
2022-12-22T14:15:01.210Z,13.80
2022-12-22T14:17:37.841Z,14.27
2022-12-22T14:20:27.662Z,13.10
2022-12-22T14:23:26.033Z,14.40
2022-12-22T14:25:55.035Z,15.23
2022-12-22T14:28:22.026Z,16.30
2022-12-22T14:30:53.169Z,16.40
2022-12-22T14:33:30.214Z,16.97
2022-12-22T14:36:15.567Z,16.80
2022-12-22T14:38:47.656Z,15.40
2022-12-22T14:41:41.189Z,15.90
2022-12-22T14:44:23.157Z,15.97
2022-12-22T14:47:29.120Z,15.20
2022-12-22T14:50:23.563Z,14.50
2022-12-22T14:52:59.670Z,12.90
2022-12-22T14:55:41.934Z,13.70
2022-12-22T14:58:27.207Z,13.53
2022-12-22T15:01:14.204Z,14.00
2022-12-22T15:03:42.392Z,12.90
2022-12-22T15:06:28.743Z,12.33
2022-12-22T15:09:15.827Z,12.50
2022-12-22T15:11:49.232Z,13.67
2022-12-22T15:14:25.001Z,14.07
2022-12-22T15:16:57.370Z,14.80
2022-12-22T15:19:24.446Z,13.77
2022-12-22T15:21:52.101Z,14.90
2022-12-22T15:24:19.464Z,13.93
2022-12-22T15:26:46.892Z,15.50
2022-12-22T15:29:14.402Z,14.27
2022-12-22T15:31:43.153Z,14.07
2022-12-22T15:34:29.142Z,14.77
2022-12-22T15:36:56.152Z,13.87
2022-12-22T15:39:24.602Z,15.60
2022-12-22T15:41:51.609Z,15.47
2022-12-22T15:44:18.640Z,14.40
2022-12-22T15:46:57.687Z,21.37
2022-12-22T15:49:30.308Z,15.53
2022-12-22T15:52:02.759Z,25.90
2022-12-22T15:54:33.041Z,45.60
2022-12-22T15:57:00.974Z,29.60
2022-12-22T15:59:29.568Z,24.90
2022-12-22T16:02:01.156Z,46.13
2022-12-22T16:04:29.252Z,37.73
2022-12-22T16:06:57.094Z,21.57
2022-12-22T16:09:27.568Z,22.90
2022-12-22T16:11:54.954Z,16.67
2022-12-22T16:14:23.505Z,20.50
2022-12-22T16:16:50.632Z,39.40
2022-12-22T16:19:18.787Z,29.70
2022-12-22T16:21:47.892Z,34.93
2022-12-22T16:24:23.993Z,19.77
2022-12-22T16:26:51.049Z,23.47
2022-12-22T16:29:18.092Z,26.77
2022-12-22T16:31:45.099Z,25.60
2022-12-22T16:34:12.096Z,31.07
2022-12-22T16:36:39.251Z,18.80
2022-12-22T16:39:06.394Z,20.20
2022-12-22T16:41:36.384Z,20.27
2022-12-22T16:44:08.288Z,20.93
2022-12-22T16:46:39.030Z,19.83
2022-12-22T16:49:09.159Z,19.27
2022-12-22T16:51:40.238Z,16.20
2022-12-22T16:54:07.408Z,19.63
2022-12-22T16:56:35.453Z,23.43
2022-12-22T16:59:04.889Z,18.37
2022-12-22T17:01:48.771Z,21.07
2022-12-22T17:04:29.062Z,19.33
2022-12-22T17:06:58.878Z,18.80
2022-12-22T17:09:33.909Z,18.00
2022-12-22T17:12:01.610Z,14.60
2022-12-22T17:14:39.504Z,13.53
2022-12-22T17:17:06.828Z,13.37
2022-12-22T17:19:33.664Z,13.57
2022-12-22T17:22:00.982Z,13.73
2022-12-22T17:24:28.973Z,13.93
2022-12-22T17:27:02.226Z,14.10
2022-12-22T17:29:30.070Z,22.07
2022-12-22T17:31:57.441Z,17.20
2022-12-22T17:34:24.445Z,15.27
2022-12-22T17:36:51.635Z,16.00
2022-12-22T17:39:23.283Z,17.47
2022-12-22T17:41:56.429Z,25.53
2022-12-22T17:44:26.051Z,18.67
2022-12-22T17:46:53.409Z,16.40
2022-12-22T17:49:22.484Z,17.03
2022-12-22T17:51:50.118Z,18.13
2022-12-22T17:54:26.074Z,18.20
2022-12-22T17:56:59.796Z,18.43
2022-12-22T17:59:27.383Z,18.07
2022-12-22T18:01:54.635Z,17.90
2022-12-22T18:04:22.167Z,19.63
2022-12-22T18:06:49.487Z,38.60
2022-12-22T18:09:23.898Z,19.23
2022-12-22T18:11:54.418Z,18.87
2022-12-22T18:14:22.751Z,18.47
2022-12-22T18:16:50.099Z,18.77
2022-12-22T18:19:17.310Z,18.97
2022-12-22T18:21:45.533Z,21.13
2022-12-22T18:24:17.495Z,22.20
2022-12-22T18:26:46.459Z,21.87
2022-12-22T18:29:17.324Z,20.87
2022-12-22T18:31:44.819Z,22.23
2022-12-22T18:34:12.270Z,22.43
2022-12-22T18:36:40.369Z,22.67
2022-12-22T18:39:17.323Z,23.27
2022-12-22T18:41:44.867Z,24.47
2022-12-22T18:44:19.240Z,22.67
2022-12-22T18:46:47.062Z,24.53
2022-12-22T18:49:14.808Z,25.37
2022-12-22T18:51:46.255Z,24.07
2022-12-22T18:54:36.777Z,25.50
2022-12-22T18:57:13.884Z,24.87
2022-12-22T18:59:41.150Z,25.57
2022-12-22T19:02:29.315Z,26.50
2022-12-22T19:04:57.547Z,25.70
2022-12-22T19:07:26.108Z,26.57
2022-12-22T19:09:53.253Z,25.37
2022-12-22T19:12:25.478Z,25.73
2022-12-22T19:14:59.465Z,24.70
2022-12-22T19:17:28.703Z,25.07
2022-12-22T19:19:57.003Z,25.83
2022-12-22T19:22:24.044Z,24.73
2022-12-22T19:24:51.665Z,25.97
2022-12-22T19:27:27.279Z,23.30
2022-12-22T19:30:03.495Z,23.07
2022-12-22T19:32:38.592Z,22.37
2022-12-22T19:35:13.125Z,23.73
2022-12-22T19:37:39.990Z,20.23
2022-12-22T19:40:07.538Z,20.93
2022-12-22T19:42:35.815Z,20.43
2022-12-22T19:45:10.286Z,18.33
2022-12-22T19:47:38.507Z,19.27
2022-12-22T19:50:14.123Z,23.33
2022-12-22T19:52:41.057Z,18.27
2022-12-22T19:55:08.166Z,15.33
2022-12-22T19:57:41.137Z,15.20
2022-12-22T20:00:20.513Z,17.40
2022-12-22T20:02:49.725Z,14.73
2022-12-22T20:05:22.934Z,16.97
2022-12-22T20:07:55.661Z,15.07
2022-12-22T20:10:25.120Z,11.60
2022-12-22T20:12:57.521Z,13.07
2022-12-22T20:15:26.595Z,11.03
2022-12-22T20:17:55.841Z,10.17
2022-12-22T20:20:35.349Z,8.70
2022-12-22T20:23:06.690Z,9.70
2022-12-22T20:25:40.034Z,8.67
2022-12-22T20:28:20.027Z,10.47
2022-12-22T20:30:47.936Z,8.87
2022-12-22T20:33:16.872Z,8.63
2022-12-22T20:35:45.975Z,6.90
2022-12-22T20:38:19.422Z,6.83
2022-12-22T20:40:48.734Z,7.30
2022-12-22T20:43:22.007Z,7.70
2022-12-22T20:45:52.219Z,7.70
2022-12-22T20:48:32.379Z,7.27
2022-12-22T20:51:00.175Z,7.47
2022-12-22T20:53:27.254Z,8.10
2022-12-22T20:55:54.724Z,6.20
2022-12-22T20:58:27.067Z,7.70
2022-12-22T21:00:58.812Z,6.30
2022-12-22T21:03:26.762Z,6.83
2022-12-22T21:05:54.046Z,7.53
2022-12-22T21:08:24.152Z,6.30
2022-12-22T21:10:52.292Z,6.53
2022-12-22T21:13:20.090Z,6.07
2022-12-22T21:15:51.021Z,7.30
2022-12-22T21:18:24.317Z,6.30
2022-12-22T21:20:51.853Z,7.47
2022-12-22T21:23:18.772Z,7.17
2022-12-22T21:25:49.886Z,7.93
2022-12-22T21:28:37.995Z,6.30
2022-12-22T21:31:05.388Z,6.60
2022-12-22T21:33:32.366Z,6.60
2022-12-22T21:36:02.093Z,7.30
2022-12-22T21:38:32.361Z,6.47
2022-12-22T21:40:59.314Z,6.13
2022-12-22T21:43:26.293Z,6.47
2022-12-22T21:45:53.268Z,5.87
2022-12-22T21:48:21.180Z,6.27
2022-12-22T21:50:50.300Z,6.20
2022-12-22T21:53:22.178Z,6.20
2022-12-22T21:55:50.143Z,6.60
2022-12-22T21:58:17.657Z,6.33
2022-12-22T22:00:48.433Z,8.00
2022-12-22T22:03:16.089Z,11.13
2022-12-22T22:05:43.562Z,6.60
2022-12-22T22:08:12.079Z,8.03
2022-12-22T22:10:43.420Z,7.70
2022-12-22T22:13:14.332Z,7.50
2022-12-22T22:15:41.443Z,7.13
2022-12-22T22:18:18.360Z,6.63
2022-12-22T22:20:45.704Z,7.23
2022-12-22T22:23:14.222Z,7.73
2022-12-22T22:25:41.294Z,8.03
2022-12-22T22:28:11.362Z,8.13
2022-12-22T22:30:40.340Z,8.13
2022-12-22T22:33:07.224Z,8.10
2022-12-22T22:35:34.111Z,7.73
2022-12-22T22:38:00.974Z,8.80
2022-12-22T22:40:27.900Z,8.67
2022-12-22T22:42:56.845Z,8.60
2022-12-22T22:45:24.483Z,8.97
2022-12-22T22:47:52.704Z,9.00
2022-12-22T22:50:23.060Z,8.90
2022-12-22T22:52:50.114Z,8.80
2022-12-22T22:55:17.131Z,9.07
2022-12-22T22:57:44.034Z,8.43
2022-12-22T23:00:13.847Z,8.87
2022-12-22T23:02:41.623Z,8.53
2022-12-22T23:05:09.102Z,8.60
2022-12-22T23:07:36.949Z,8.47
2022-12-22T23:10:05.381Z,9.33
2022-12-22T23:12:32.375Z,11.70
2022-12-22T23:15:01.811Z,8.63
2022-12-22T23:17:29.207Z,9.40
2022-12-22T23:19:56.148Z,13.77
2022-12-22T23:22:23.279Z,7.70
2022-12-22T23:24:50.193Z,10.37
2022-12-22T23:27:17.504Z,7.60
2022-12-22T23:29:44.439Z,7.07
2022-12-22T23:32:11.450Z,8.17
2022-12-22T23:34:38.334Z,9.07
2022-12-22T23:37:05.321Z,8.07
2022-12-22T23:39:32.316Z,7.30
2022-12-22T23:41:59.227Z,7.43
2022-12-22T23:44:26.661Z,8.10
2022-12-22T23:46:53.724Z,6.73
2022-12-22T23:49:20.768Z,8.07
2022-12-22T23:51:47.658Z,7.60
2022-12-22T23:54:14.516Z,7.87
2022-12-22T23:56:41.435Z,6.67
2022-12-22T23:59:08.711Z,6.53
